createdAt,value
2023-03-26T14:38:49.405Z,52.28
2023-03-26T14:41:47.519Z,51.70
2023-03-26T14:44:56.178Z,50.93
2023-03-26T14:47:26.897Z,51.92
2023-03-26T14:50:42.308Z,52.15
2023-03-26T14:53:37.773Z,52.23
2023-03-26T14:56:15.662Z,52.31
2023-03-26T14:58:55.316Z,51.82
2023-03-26T15:01:27.626Z,52.40
2023-03-26T15:04:28.888Z,52.88
2023-03-26T15:07:33.359Z,53.04
2023-03-26T15:10:36.302Z,52.93
2023-03-26T15:13:26.092Z,52.81
2023-03-26T15:16:20.780Z,53.40
2023-03-26T15:19:38.615Z,53.86
2023-03-26T15:23:06.439Z,53.09
2023-03-26T15:26:17.339Z,53.36
2023-03-26T15:28:50.830Z,54.15
2023-03-26T15:31:42.161Z,54.53
2023-03-26T15:35:01.989Z,55.20
2023-03-26T15:37:52.192Z,55.59
2023-03-26T15:40:51.528Z,55.45
2023-03-26T15:43:25.749Z,55.87
2023-03-26T15:46:51.514Z,56.42
2023-03-26T15:50:01.554Z,56.59
2023-03-26T15:53:09.440Z,57.23
2023-03-26T15:56:20.393Z,57.53
2023-03-26T15:58:56.212Z,58.15
2023-03-26T16:01:44.167Z,58.57
2023-03-26T16:04:29.100Z,59.18
2023-03-26T16:07:15.864Z,59.40
2023-03-26T16:10:13.617Z,59.75
2023-03-26T16:13:26.349Z,60.35
2023-03-26T16:16:22.419Z,60.40
2023-03-26T16:19:18.239Z,60.70
2023-03-26T16:22:01.949Z,61.40
2023-03-26T16:24:37.041Z,61.12
2023-03-26T16:27:14.905Z,61.41
2023-03-26T16:30:31.060Z,61.33
2023-03-26T16:33:18.111Z,61.28
2023-03-26T16:36:05.369Z,61.27
2023-03-26T16:39:04.735Z,61.30
2023-03-26T16:41:46.421Z,61.32
2023-03-26T16:44:19.997Z,61.34
2023-03-26T16:47:01.911Z,61.47
2023-03-26T16:50:08.542Z,61.62
2023-03-26T16:53:02.981Z,61.47
2023-03-26T16:56:41.697Z,61.74
2023-03-26T17:00:06.129Z,62.03
2023-03-26T17:02:45.308Z,69.25
2023-03-26T17:05:33.809Z,70.00
2023-03-26T17:08:46.529Z,61.92
2023-03-26T17:12:13.248Z,57.67
2023-03-26T17:15:07.798Z,56.36
2023-03-26T17:18:10.180Z,57.40
2023-03-26T17:20:51.355Z,57.98
2023-03-26T17:24:03.630Z,59.29
2023-03-26T17:26:58.091Z,60.27
2023-03-26T17:29:34.878Z,61.49
2023-03-26T17:32:14.567Z,61.96
2023-03-26T17:34:50.961Z,62.92
2023-03-26T17:37:23.613Z,62.25
2023-03-26T17:39:51.062Z,65.33
2023-03-26T17:42:27.818Z,63.45
2023-03-26T17:45:00.965Z,57.40
2023-03-26T17:47:53.552Z,56.49
2023-03-26T17:50:35.414Z,58.31
2023-03-26T17:53:16.234Z,59.38
2023-03-26T17:55:46.019Z,61.22
2023-03-26T18:01:45.573Z,61.41
2023-03-26T18:04:45.703Z,61.56
2023-03-26T18:07:44.362Z,63.14
2023-03-26T18:10:49.005Z,61.92
2023-03-26T18:13:52.251Z,58.54
2023-03-26T18:16:37.289Z,59.97
2023-03-26T18:19:19.590Z,62.35
2023-03-26T18:21:52.618Z,62.10
2023-03-26T18:24:40.688Z,62.57
2023-03-26T18:27:19.072Z,61.56
2023-03-26T18:30:03.457Z,57.98
2023-03-26T18:32:41.158Z,58.96
2023-03-26T18:35:22.186Z,60.75
2023-03-26T18:37:58.518Z,62.74
2023-03-26T18:40:41.767Z,62.78
2023-03-26T18:43:32.548Z,60.03
2023-03-26T18:46:04.633Z,59.26
2023-03-26T18:48:33.762Z,60.26
2023-03-26T18:51:06.266Z,62.08
2023-03-26T18:54:00.064Z,62.81
2023-03-26T18:56:47.668Z,60.77
2023-03-26T18:59:32.121Z,60.78
2023-03-26T19:02:13.552Z,58.05
2023-03-26T19:04:47.070Z,58.97
2023-03-26T19:37:52.053Z,63.25
2023-03-26T19:40:30.430Z,63.11
2023-03-26T19:43:02.315Z,63.25
2023-03-26T19:45:35.213Z,65.13
2023-03-26T19:48:15.307Z,64.70
2023-03-26T19:51:01.023Z,63.99
2023-03-26T19:53:53.586Z,65.06
2023-03-26T19:56:23.350Z,65.35
2023-03-26T19:58:52.300Z,63.43
2023-03-26T20:01:26.967Z,63.81
2023-03-26T20:04:01.163Z,63.44
2023-03-26T20:06:42.625Z,63.53
2023-03-26T20:09:13.761Z,62.67
2023-03-26T20:11:42.853Z,63.43
2023-03-26T20:14:17.352Z,63.84
2023-03-26T20:16:46.593Z,64.27
2023-03-26T20:19:15.812Z,65.66
2023-03-26T20:21:45.179Z,65.87
2023-03-26T20:24:17.806Z,65.98
2023-03-26T20:26:47.199Z,66.53
2023-03-26T20:29:16.361Z,67.29
2023-03-26T20:31:45.658Z,67.29
2023-03-26T20:34:20.076Z,67.59
2023-03-26T20:36:55.610Z,67.97
2023-03-26T20:39:25.748Z,68.47
2023-03-26T20:41:56.574Z,68.39
2023-03-26T20:44:27.058Z,68.53
2023-03-26T20:46:59.151Z,69.01
2023-03-26T20:49:29.597Z,69.36
2023-03-26T20:51:59.939Z,69.56
2023-03-26T20:54:30.696Z,69.57
2023-03-26T20:57:00.280Z,70.49
2023-03-26T20:59:30.249Z,69.72
2023-03-26T21:01:59.867Z,69.36
2023-03-26T21:04:29.094Z,69.43
2023-03-26T21:07:06.983Z,69.68
2023-03-26T21:09:45.056Z,68.92
2023-03-26T21:12:35.395Z,69.48
2023-03-26T21:15:13.411Z,69.12
2023-03-26T21:17:55.090Z,69.06
2023-03-26T21:20:28.250Z,68.98
2023-03-26T21:23:17.070Z,69.21
2023-03-26T21:26:15.517Z,69.29
2023-03-26T21:28:50.609Z,69.33
2023-03-26T21:31:24.629Z,69.56
2023-03-26T21:33:55.277Z,69.42
2023-03-26T21:36:24.618Z,69.42
2023-03-26T21:38:55.048Z,69.52
2023-03-26T21:41:31.413Z,69.50
2023-03-26T21:44:00.830Z,69.50
2023-03-26T21:46:32.046Z,69.52
2023-03-26T21:49:01.361Z,69.33
2023-03-26T21:51:30.753Z,69.39
2023-03-26T21:54:00.304Z,69.51
2023-03-26T21:57:06.458Z,69.49
